Time;durP1;ratioP1;P1;durP2;ratioP2;P2;SDS_P1;SDS_P2;PMS_P1;PMS_P2;Temp;Humidity;BMP_temperature;BMP_pressure;BME280_temperature;BME280_humidity;BME280_pressure;Samples;Min_cycle;Max_cycle;Signal;HPM_P1;HPM_P2
2022/01/13 00:01:24;;;;;;;11.48;5.80;;;7.30;59.80;;;5.38;65.69;103204.94;8216082;28;20129;-83
2022/01/13 00:05:46;;;;;;;8.85;5.25;;;7.30;59.70;;;5.55;65.54;103240.44;8188848;28;20114;-83
2022/01/13 00:10:08;;;;;;;9.77;5.25;;;7.40;59.80;;;5.68;65.71;103245.72;8181873;28;20523;-83
2022/01/13 00:19:16;;;;;;;7.63;5.05;;;7.40;59.80;;;5.43;65.31;103188.56;8188882;28;20436;-83
2022/01/13 00:23:40;;;;;;;9.95;6.60;;;7.40;59.80;;;5.58;65.75;103208.50;8217157;28;20126;-83
2022/01/13 00:28:07;;;;;;;9.63;5.47;;;7.40;59.90;;;5.56;65.80;103210.22;8197028;28;20053;-83
2022/01/13 00:32:32;;;;;;;8.68;5.65;;;7.40;59.90;;;5.61;65.66;103203.34;8220713;28;20126;-83
2022/01/13 00:36:53;;;;;;;11.02;6.53;;;7.40;59.90;;;5.61;65.60;103211.09;8213938;28;20041;-83
2022/01/13 00:41:15;;;;;;;8.90;5.47;;;7.20;59.80;;;5.65;65.50;103222.38;8204119;28;20483;-83
2022/01/13 00:45:37;;;;;;;9.68;5.75;;;7.40;59.90;;;5.71;65.49;103225.00;8186376;28;20037;-83
2022/01/13 00:49:59;;;;;;;9.90;6.35;;;7.40;59.90;;;5.64;65.58;103197.31;8193726;28;20129;-83
2022/01/13 00:54:20;;;;;;;12.15;6.68;;;7.40;60.00;;;5.65;65.90;103194.72;8208054;28;20126;-83
2022/01/13 00:58:43;;;;;;;14.35;7.18;;;7.40;60.00;;;5.71;65.33;103207.72;8222279;28;20523;-83
2022/01/13 01:03:04;;;;;;;12.27;6.25;;;7.30;59.90;;;5.66;65.88;103190.41;8195839;28;20726;-83
2022/01/13 01:07:26;;;;;;;7.63;5.35;;;7.40;60.60;;;5.76;65.76;103198.25;8189435;28;20118;-83
2022/01/13 01:11:50;;;;;;;10.27;5.88;;;7.30;59.90;;;5.76;65.73;103195.66;8202861;28;20548;-83
2022/01/13 01:16:12;;;;;;;13.93;7.72;;;7.40;60.00;;;5.78;65.13;103213.81;8189663;28;20477;-83
2022/01/13 01:20:46;;;;;;;11.77;6.15;;;7.40;60.00;;;5.76;65.25;103211.19;8192947;28;20041;-82
2022/01/13 01:25:32;;;;;;;11.65;6.07;;;7.40;60.10;;;5.74;65.47;103191.31;8205732;28;20633;-83
2022/01/13 01:29:58;;;;;;;10.90;7.05;;;7.50;60.20;;;5.71;65.74;103189.56;8190024;28;20142;-83
2022/01/13 01:39:02;;;;;;;9.77;6.53;;;7.50;60.30;;;5.79;65.60;103199.97;8206929;28;20042;-83
2022/01/13 01:43:25;;;;;;;11.70;7.00;;;7.50;60.90;;;5.83;65.65;103191.34;8181475;28;20122;-83
2022/01/13 01:47:51;;;;;;;13.52;7.43;;;7.50;60.30;;;5.76;65.39;103177.50;8201095;28;20109;-83
2022/01/13 01:52:18;;;;;;;12.80;7.47;;;7.50;60.40;;;5.80;66.00;103183.56;8199820;28;20134;-83
2022/01/13 01:56:41;;;;;;;12.77;7.30;;;7.60;60.40;;;5.88;65.75;103207.78;8189346;28;20122;-83
2022/01/13 02:01:03;;;;;;;14.57;7.05;;;7.50;60.40;;;5.90;65.71;103213.84;8198965;28;20049;-83
2022/01/13 02:05:24;;;;;;;12.38;7.72;;;7.60;60.40;;;5.82;65.93;103192.22;8205040;28;20143;-83
2022/01/13 02:09:51;;;;;;;15.40;7.80;;;7.60;60.40;;;5.93;65.70;103202.63;8185382;28;20519;-83
2022/01/13 02:18:48;;;;;;;14.27;7.80;;;7.60;60.50;;;5.94;66.04;103189.72;8199741;28;20112;-83
2022/01/13 02:23:10;;;;;;;14.85;7.38;;;7.70;60.60;;;5.73;65.46;103143.78;8194866;28;20034;-83
2022/01/13 02:27:32;;;;;;;12.98;8.05;;;7.60;60.50;;;5.33;65.89;103068.47;8191317;28;20031;-83
2022/01/13 02:31:54;;;;;;;16.15;8.45;;;7.70;60.60;;;5.95;65.96;103162.06;8185508;28;20118;-83
2022/01/13 02:36:19;;;;;;;14.10;8.98;;;7.70;60.70;;;6.04;66.00;103163.81;8200940;28;20126;-83
2022/01/13 02:40:41;;;;;;;13.98;8.75;;;7.70;60.80;;;5.98;65.88;103136.13;8181367;28;20035;-83
2022/01/13 02:45:14;;;;;;;15.23;8.45;;;7.70;60.80;;;5.92;66.02;103111.00;8193229;28;20150;-83
2022/01/13 02:49:36;;;;;;;14.18;8.75;;;7.80;60.90;;;6.07;65.87;103135.28;8194748;28;20549;-83
2022/01/13 02:53:58;;;;;;;13.10;8.25;;;7.80;60.90;;;6.02;65.61;103126.63;8193392;28;20118;-83
2022/01/13 02:58:23;;;;;;;17.02;10.13;;;7.80;60.90;;;6.00;65.84;103111.06;8191868;28;20045;-83
2022/01/13 03:02:47;;;;;;;14.27;9.20;;;7.70;61.00;;;6.13;65.54;103127.50;8212545;28;20027;-83
2022/01/13 03:07:09;;;;;;;16.52;9.15;;;7.80;61.00;;;5.91;66.11;103080.75;8183180;28;20035;-84
2022/01/13 03:11:35;;;;;;;16.40;8.80;;;7.80;61.00;;;5.89;65.55;103060.88;8191847;28;20124;-84
2022/01/13 03:15:57;;;;;;;15.48;8.10;;;7.80;61.00;;;6.16;66.08;103112.81;8167588;28;20039;-84
2022/01/13 03:20:19;;;;;;;14.68;9.20;;;7.80;61.00;;;6.13;65.65;103104.16;8191178;28;20556;-83
2022/01/13 03:24:40;;;;;;;14.95;8.75;;;7.70;60.80;;;6.16;65.79;103099.84;8199985;28;20042;-84
2022/01/13 03:33:34;;;;;;;13.32;8.52;;;7.90;61.00;;;6.19;65.81;103084.28;8205709;28;20053;-83
2022/01/13 03:37:58;;;;;;;13.68;8.25;;;7.90;60.90;;;6.20;65.95;103078.22;8202422;28;20126;-84
2022/01/13 03:42:20;;;;;;;15.25;8.30;;;7.90;60.90;;;6.17;65.70;103074.78;8191667;28;20133;-84
2022/01/13 03:46:42;;;;;;;18.77;9.73;;;7.90;61.00;;;6.02;65.97;103065.22;8189465;28;20121;-84
2022/01/13 03:51:03;;;;;;;14.40;9.27;;;7.90;61.00;;;6.11;66.00;103075.63;8210441;28;20125;-84
2022/01/13 03:55:38;;;;;;;15.00;8.65;;;7.90;61.30;;;6.26;66.28;103107.63;8189278;28;20035;-83
2022/01/13 04:00:51;;;;;;;14.88;8.27;;;8.10;61.60;;;6.23;66.31;103099.84;8204113;28;20504;-83
2022/01/13 04:05:12;;;;;;;13.13;8.02;;;8.00;61.40;;;6.18;65.93;103092.94;8203779;28;20129;-83
2022/01/13 04:09:34;;;;;;;18.65;10.65;;;7.90;61.40;;;6.26;66.20;103095.53;8201000;28;20109;-83
2022/01/13 04:13:59;;;;;;;13.23;8.43;;;8.00;61.40;;;6.28;66.21;103105.91;8203657;28;20043;-83
2022/01/13 04:18:21;;;;;;;12.00;7.95;;;7.90;61.30;;;6.27;66.32;103099.00;8184521;28;20043;-83
2022/01/13 04:22:44;;;;;;;18.50;9.75;;;7.90;61.30;;;6.29;66.12;103089.47;8203164;28;20460;-84
2022/01/13 04:27:08;;;;;;;15.15;9.20;;;7.90;61.40;;;6.11;66.04;103059.22;8211257;28;20125;-84
2022/01/13 04:31:30;;;;;;;15.35;8.98;;;8.00;61.60;;;6.11;66.06;103049.69;8183370;28;20113;-83
2022/01/13 04:35:52;;;;;;;13.40;8.38;;;8.00;61.50;;;6.15;65.90;103056.59;8195848;28;20043;-83
2022/01/13 04:40:14;;;;;;;15.27;8.25;;;7.90;61.30;;;6.31;65.99;103080.84;8171648;28;20039;-84
2022/01/13 04:44:35;;;;;;;13.40;8.15;;;8.00;61.50;;;6.32;65.89;103069.59;8191944;28;20035;-84
2022/01/13 04:48:57;;;;;;;15.00;8.48;;;8.00;61.40;;;6.20;66.33;103049.69;8195209;28;20173;-84
2022/01/13 04:53:19;;;;;;;11.90;8.20;;;7.90;61.60;;;6.19;66.05;103053.16;8201406;28;20464;-83
2022/01/13 04:57:40;;;;;;;12.70;7.70;;;8.00;61.50;;;6.19;66.17;103041.91;8198060;28;20126;-83
2022/01/13 05:02:02;;;;;;;14.80;9.02;;;7.90;61.40;;;6.32;66.06;103071.31;8187520;28;20035;-84
2022/01/13 05:06:26;;;;;;;15.48;9.13;;;8.00;61.50;;;6.30;66.28;103073.06;8201677;28;20098;-84
2022/01/13 05:10:48;;;;;;;13.80;7.47;;;8.00;61.50;;;6.29;65.98;103063.53;8166079;28;20061;-83
2022/01/13 05:15:22;;;;;;;15.15;7.68;;;8.00;61.40;;;6.23;65.88;103047.97;8182320;28;20046;-85
2022/01/13 05:19:58;;;;;;;13.73;8.10;;;8.00;61.50;;;6.31;65.92;103056.63;8167766;28;20041;-83
2022/01/13 05:24:19;;;;;;;12.48;7.75;;;8.00;61.40;;;6.34;66.26;103060.06;8201578;28;20038;-85
2022/01/13 05:28:41;;;;;;;12.10;8.15;;;8.00;61.50;;;6.31;66.11;103048.84;8187759;28;20412;-84
2022/01/13 05:33:03;;;;;;;16.17;8.77;;;8.00;61.60;;;6.21;65.93;103040.16;8175750;28;20046;-88
2022/01/13 05:37:25;;;;;;;12.30;8.30;;;7.90;61.40;;;6.33;66.11;103073.91;8178841;28;20041;-87
2022/01/13 05:41:47;;;;;;;16.90;8.48;;;8.00;61.60;;;6.16;65.90;103040.19;8202532;28;20073;-84
2022/01/13 05:46:09;;;;;;;11.77;7.88;;;8.00;61.60;;;6.31;66.06;103072.19;8200853;28;20114;-84
2022/01/13 05:50:32;;;;;;;13.25;8.77;;;8.00;61.60;;;6.28;65.98;103046.25;8189073;28;20567;-84
2022/01/13 05:54:54;;;;;;;16.10;9.20;;;8.00;61.60;;;6.25;65.97;103049.69;8201863;28;20117;-84
2022/01/13 05:59:16;;;;;;;13.18;8.20;;;8.00;61.60;;;6.21;65.92;103045.34;8195427;28;20489;-89
2022/01/13 06:03:37;;;;;;;15.88;9.25;;;7.90;61.50;;;6.19;66.10;103052.31;8195691;28;20150;-85
2022/01/13 06:07:59;;;;;;;13.60;8.88;;;7.90;61.60;;;6.29;66.29;103066.13;8183320;28;20114;-83
2022/01/13 06:12:32;;;;;;;15.25;8.63;;;7.90;61.70;;;6.28;65.74;103067.00;8190301;28;20035;-84
2022/01/13 06:16:54;;;;;;;14.27;8.63;;;8.00;61.80;;;6.20;66.10;103052.28;8196881;28;20030;-85
2022/01/13 06:21:16;;;;;;;12.48;7.82;;;7.90;61.70;;;6.15;66.32;103056.59;8199338;28;20031;-84
2022/01/13 06:25:38;;;;;;;17.75;9.00;;;7.90;62.00;;;6.08;66.20;103057.47;8186131;28;20114;-85
2022/01/13 06:29:59;;;;;;;18.50;8.55;;;7.90;61.80;;;6.19;66.49;103073.06;8180152;28;20118;-82
2022/01/13 06:34:21;;;;;;;16.10;8.13;;;7.90;61.70;;;6.20;66.13;103090.34;8193669;28;20125;-83
2022/01/13 06:38:43;;;;;;;15.10;8.23;;;7.90;61.90;;;6.21;65.98;103089.47;8207818;28;20045;-83
2022/01/13 06:43:05;;;;;;;16.08;8.07;;;7.90;61.80;;;6.21;65.97;103092.06;8178821;28;20053;-83
2022/01/13 06:47:26;;;;;;;11.68;7.63;;;7.90;61.90;;;6.08;66.36;103073.03;8196791;28;20034;-83
2022/01/13 06:51:48;;;;;;;13.15;8.50;;;7.90;61.90;;;6.13;66.20;103073.03;8199978;28;20579;-83
2022/01/13 06:56:10;;;;;;;16.48;8.10;;;7.90;61.90;;;6.19;66.07;103080.84;8191921;28;20122;-82
2022/01/13 07:00:33;;;;;;;13.23;8.38;;;7.90;62.00;;;6.24;66.55;103091.19;8201349;28;20405;-82
2022/01/13 07:04:56;;;;;;;16.58;8.75;;;7.90;61.90;;;6.25;66.15;103091.22;8213171;28;20475;-82
2022/01/13 07:09:17;;;;;;;18.63;9.20;;;7.90;61.90;;;6.19;66.06;103084.28;8199387;28;20117;-83
2022/01/13 07:13:39;;;;;;;15.30;8.55;;;7.90;62.00;;;6.15;66.17;103082.53;8178370;28;20479;-81
2022/01/13 07:18:01;;;;;;;15.45;8.02;;;7.90;61.90;;;6.26;66.63;103115.44;8189806;28;20129;-82
2022/01/13 07:22:22;;;;;;;16.08;7.70;;;7.90;61.90;;;6.15;66.00;103098.09;8193813;28;20042;-83
2022/01/13 07:26:44;;;;;;;18.08;9.43;;;7.70;61.90;;;6.11;66.23;103075.63;8192184;28;20039;-85
2022/01/13 07:31:06;;;;;;;15.45;8.48;;;7.80;62.00;;;6.20;65.94;103086.00;8180061;28;20047;-86
2022/01/13 07:35:28;;;;;;;14.02;9.10;;;7.80;61.90;;;6.18;66.22;103090.34;8191112;28;20038;-87
2022/01/13 07:39:50;;;;;;;15.30;8.80;;;7.80;62.00;;;6.13;65.89;103073.03;8192759;28;20411;-85
2022/01/13 07:44:12;;;;;;;15.27;9.13;;;7.90;62.00;;;6.11;66.24;103090.34;8202251;28;20042;-83
2022/01/13 07:48:34;;;;;;;14.30;9.32;;;7.80;62.00;;;6.19;66.42;103110.22;8198848;28;20037;-84
2022/01/13 07:52:55;;;;;;;15.13;8.57;;;7.80;62.10;;;6.22;66.00;103111.97;8198601;28;20049;-85
2022/01/13 07:57:17;;;;;;;15.65;7.82;;;7.90;62.20;;;6.13;66.37;103093.78;8193179;28;20134;-83
2022/01/13 08:01:39;;;;;;;15.13;9.00;;;7.70;62.20;;;6.08;66.40;103083.41;8195037;28;20031;-85
2022/01/13 08:06:01;;;;;;;17.52;9.40;;;7.80;62.20;;;6.05;66.13;103062.66;8221013;28;20472;-84
2022/01/13 08:10:23;;;;;;;17.52;9.25;;;7.70;62.10;;;6.15;66.46;103108.47;8201948;28;20118;-84
2022/01/13 08:14:44;;;;;;;14.88;8.73;;;7.80;62.20;;;6.05;66.36;103079.94;8183468;28;20122;-85
2022/01/13 08:23:46;;;;;;;17.50;9.02;;;7.80;62.30;;;6.14;66.25;103105.91;8188420;28;20146;-85
2022/01/13 08:28:10;;;;;;;12.25;7.97;;;7.80;62.40;;;6.08;66.72;103114.53;8197233;28;20659;-83
2022/01/13 08:32:32;;;;;;;12.88;7.38;;;7.80;62.50;;;6.19;66.65;103120.63;8210139;28;20038;-89
2022/01/13 08:36:53;;;;;;;13.10;7.63;;;7.90;62.50;;;6.24;66.36;103128.41;8211747;28;20130;-84
2022/01/13 08:41:16;;;;;;;12.32;8.20;;;7.90;62.50;;;6.09;66.64;103103.28;8190588;28;20527;-83
2022/01/13 08:45:38;;;;;;;15.02;8.48;;;7.90;62.60;;;6.15;66.43;103108.47;8188033;28;20117;-82
2022/01/13 08:50:00;;;;;;;11.68;7.40;;;7.90;62.70;;;6.21;66.56;103125.78;8183738;28;20121;-85
2022/01/13 08:54:22;;;;;;;15.68;7.45;;;7.90;62.80;;;6.20;66.70;103105.91;8191220;28;20229;-84
2022/01/13 08:58:46;;;;;;;14.88;7.95;;;7.90;62.70;;;6.19;66.39;103097.25;8210640;28;20189;-84
2022/01/13 09:03:08;;;;;;;11.80;6.60;;;7.90;62.70;;;6.25;66.54;103087.75;8188775;28;20035;-85
2022/01/13 09:07:30;;;;;;;18.08;7.82;;;7.90;62.70;;;6.24;66.85;103092.09;8194109;28;20114;-84
2022/01/13 09:11:52;;;;;;;14.52;7.90;;;8.00;62.70;;;6.25;66.83;103091.22;8203514;28;20845;-84
2022/01/13 09:16:16;;;;;;;14.93;7.53;;;7.90;62.60;;;6.27;66.35;103091.22;8183192;28;20122;-83
2022/01/13 09:20:39;;;;;;;13.98;8.48;;;7.90;62.70;;;6.31;66.89;103090.34;8190936;29;20039;-86
2022/01/13 09:25:01;;;;;;;12.80;6.90;;;8.00;62.80;;;6.32;66.33;103097.25;8193517;28;20121;-84
2022/01/13 09:29:23;;;;;;;15.63;7.35;;;8.00;62.80;;;6.40;66.89;103124.97;8184566;28;20110;-84
2022/01/13 09:33:45;;;;;;;15.80;8.25;;;8.00;62.80;;;6.42;66.80;103112.84;8174850;28;20548;-84
2022/01/13 09:38:07;;;;;;;14.93;7.72;;;8.10;62.80;;;6.45;66.44;103108.53;8194827;28;20129;-83
2022/01/13 09:42:32;;;;;;;12.20;7.10;;;7.90;62.60;;;6.39;66.66;103089.47;8211758;28;20035;-83
2022/01/13 09:46:55;;;;;;;13.52;7.55;;;8.10;62.80;;;6.49;66.44;103086.91;8201038;28;20035;-85
2022/01/13 09:51:16;;;;;;;14.15;7.00;;;8.10;62.80;;;6.50;66.65;103093.81;8188838;28;20126;-85
2022/01/13 09:55:40;;;;;;;12.75;7.43;;;8.10;62.70;;;6.44;66.85;103079.13;8198526;28;20117;-85
2022/01/13 10:00:03;;;;;;;12.85;7.07;;;8.10;62.70;;;6.37;66.66;103075.66;8177094;28;20496;-84
2022/01/13 10:04:45;;;;;;;14.23;7.72;;;8.20;62.70;;;6.51;66.59;103090.34;8210811;28;20126;-84
2022/01/13 10:09:06;;;;;;;15.68;7.80;;;8.10;62.80;;;6.49;66.23;103079.97;8206398;28;20118;-85
2022/01/13 10:13:40;;;;;;;16.15;7.95;;;8.20;62.70;;;6.55;66.76;103087.75;8177066;28;20411;-85
2022/01/13 10:18:04;;;;;;;16.55;7.95;;;8.10;62.50;;;6.36;66.79;103047.97;8200833;28;20039;-84
2022/01/13 10:22:33;;;;;;;13.77;8.15;;;8.20;62.50;;;6.48;66.59;103061.78;8196976;28;20514;-85
2022/01/13 10:27:02;;;;;;;14.02;7.45;;;8.20;62.70;;;6.56;66.91;103071.34;8187999;28;20137;-85
2022/01/13 10:31:50;;;;;;;17.15;8.13;;;8.10;62.50;;;6.52;66.73;103061.81;8179323;28;20046;-86
2022/01/13 10:36:14;;;;;;;14.05;8.63;;;8.30;62.60;;;6.41;66.93;103032.41;8201637;28;20564;-85
2022/01/13 10:40:40;;;;;;;17.85;9.63;;;8.20;62.40;;;6.46;66.67;103029.81;8206371;28;20033;-85
2022/01/13 10:45:03;;;;;;;15.63;8.80;;;8.20;62.40;;;6.51;66.95;103028.94;8191159;28;20584;-82
2022/01/13 10:49:40;;;;;;;13.73;7.82;;;8.30;62.50;;;6.49;66.83;103022.03;8207138;28;20118;-85
2022/01/13 10:54:25;;;;;;;19.33;8.35;;;8.30;62.70;;;6.40;66.87;102999.53;8190680;28;20121;-85
2022/01/13 10:58:53;;;;;;;18.48;8.20;;;8.30;62.70;;;6.56;66.74;103035.00;8209370;28;20586;-87
2022/01/13 11:03:18;;;;;;;15.15;7.72;;;8.30;62.50;;;6.56;66.54;103032.41;8184191;28;20129;-88
2022/01/13 11:07:41;;;;;;;16.30;7.85;;;8.30;62.50;;;6.63;67.14;103036.69;8204449;28;20122;-87
2022/01/13 11:12:03;;;;;;;18.30;8.40;;;8.30;62.50;;;6.55;66.77;103024.59;8174772;28;20708;-85
2022/01/13 11:16:26;;;;;;;16.42;8.30;;;8.30;62.50;;;6.59;66.67;103028.94;8181476;28;20129;-87
2022/01/13 11:20:49;;;;;;;19.00;8.57;;;8.30;62.50;;;6.46;66.64;103002.13;8187517;28;20041;-86
2022/01/13 11:25:15;;;;;;;16.55;8.40;;;8.30;62.50;;;6.62;66.45;103027.19;8191324;28;20130;-86
2022/01/13 11:29:38;;;;;;;;;;;8.30;62.70;;;6.56;66.47;103006.44;8180332;28;20114;-86
2022/01/13 11:34:00;;;;;;;12.52;6.50;;;8.30;62.50;;;6.67;66.81;103024.59;8190280;28;20012;-85
2022/01/13 11:38:25;;;;;;;14.65;7.38;;;8.40;62.30;;;6.58;66.77;102998.63;8174913;28;20621;-85
2022/01/13 11:42:47;;;;;;;16.55;7.82;;;8.40;62.40;;;6.60;66.45;103002.97;8183679;28;20037;-85
2022/01/13 11:47:25;;;;;;;16.95;8.65;;;8.40;62.40;;;6.62;66.54;102992.59;8194915;28;20035;-84
2022/01/13 11:52:10;;;;;;;14.93;7.38;;;8.30;62.40;;;6.68;67.04;103004.69;8200637;28;20122;-84
2022/01/13 11:56:32;;;;;;;14.18;6.80;;;8.40;62.50;;;6.63;66.82;102986.50;8193788;28;20074;-83
2022/01/13 12:00:54;;;;;;;12.82;7.53;;;8.40;62.50;;;6.74;66.74;103009.84;8202981;28;20039;-83
2022/01/13 12:05:20;;;;;;;13.45;7.13;;;8.40;62.50;;;6.60;66.65;102995.16;8198328;28;20122;-83
2022/01/13 12:09:41;;;;;;;14.55;7.00;;;8.40;62.50;;;6.72;66.82;103006.38;8202084;28;20038;-83
2022/01/13 12:14:23;;;;;;;11.27;6.15;;;8.40;62.50;;;6.77;66.45;103021.09;8190279;28;20035;-84
2022/01/13 12:19:08;;;;;;;13.93;7.03;;;8.40;62.60;;;6.64;66.66;102983.03;8220047;28;20050;-83
2022/01/13 12:23:43;;;;;;;10.70;5.88;;;8.40;62.50;;;6.79;67.04;102985.59;8204142;28;20472;-83
2022/01/13 12:28:18;;;;;;;10.60;6.30;;;8.40;62.50;;;6.80;66.63;102983.88;8213547;28;20134;-84
2022/01/13 12:33:00;;;;;;;10.35;6.25;;;8.50;62.50;;;6.74;66.56;102971.75;8189901;28;20039;-85
2022/01/13 12:37:25;;;;;;;8.63;5.63;;;8.50;62.50;;;6.84;66.63;102977.81;8187455;28;20042;-84
2022/01/13 12:41:56;;;;;;;11.52;6.38;;;8.50;62.40;;;6.72;66.75;102955.31;8211695;28;20031;-84
2022/01/13 12:46:24;;;;;;;9.93;6.05;;;8.40;62.30;;;6.89;66.58;102975.22;8208828;28;20060;-84
2022/01/13 12:50:47;;;;;;;9.52;5.70;;;8.40;62.20;;;6.76;66.55;102951.84;8183955;28;20031;-84
2022/01/13 12:55:09;;;;;;;10.73;6.07;;;8.50;62.30;;;6.81;66.44;102951.84;8191196;28;20118;-83
2022/01/13 12:59:32;;;;;;;9.48;5.47;;;8.50;62.30;;;6.84;66.63;102960.50;8168503;28;20130;-83
2022/01/13 13:04:08;;;;;;;10.75;5.50;;;8.60;62.30;;;6.80;66.82;102956.16;8199112;28;20460;-83
2022/01/13 13:08:30;;;;;;;;;;;8.50;62.20;;;6.95;66.59;102970.84;8192245;28;20497;-85
2022/01/13 13:12:53;;;;;;;10.15;5.63;;;8.60;62.30;;;6.82;66.68;102949.22;8185159;28;20323;-85
2022/01/13 13:17:38;;;;;;;9.70;5.20;;;8.50;62.00;;;6.89;66.86;102957.03;8201397;28;20109;-83
2022/01/13 13:22:07;;;;;;;9.27;5.57;;;8.60;62.10;;;6.89;66.49;102955.28;8188794;28;20039;-83
2022/01/13 13:26:28;;;;;;;11.52;5.78;;;8.60;62.00;;;7.01;66.84;102957.81;8196012;28;20039;-83
2022/01/13 13:30:57;;;;;;;11.27;6.47;;;8.60;62.00;;;6.90;66.77;102948.34;8173985;28;20046;-83
2022/01/13 13:35:19;;;;;;;10.60;5.53;;;8.70;62.40;;;6.98;66.59;102942.25;8188081;28;20050;-83
2022/01/13 13:39:40;;;;;;;13.05;6.78;;;8.70;62.10;;;7.11;66.76;102963.00;8199204;28;20083;-84
2022/01/13 13:44:04;;;;;;;11.25;5.75;;;8.70;62.00;;;7.05;66.87;102950.91;8190026;28;20121;-83
2022/01/13 13:48:26;;;;;;;9.15;5.75;;;8.80;62.00;;;7.05;66.59;102943.97;8198945;28;20035;-82
2022/01/13 13:53:02;;;;;;;10.88;6.03;;;8.70;61.90;;;7.15;66.69;102952.56;8211341;28;20042;-89
2022/01/13 13:57:37;;;;;;;10.73;5.97;;;8.80;61.90;;;6.99;66.74;102924.91;8200657;28;20428;-84
2022/01/13 14:02:35;;;;;;;10.75;5.88;;;8.80;61.90;;;7.15;66.99;102946.50;8185696;28;20047;-83
2022/01/13 14:06:56;;;;;;;11.45;5.93;;;8.80;61.80;;;7.17;66.27;102947.34;8203553;28;20598;-83
2022/01/13 14:11:18;;;;;;;10.68;5.97;;;8.80;61.70;;;7.14;66.57;102944.78;8199029;28;20035;-83
2022/01/13 14:15:44;;;;;;;11.38;6.05;;;8.70;61.60;;;7.22;66.85;102963.78;8183473;28;20449;-83
2022/01/13 14:20:14;;;;;;;12.20;6.32;;;8.90;61.70;;;7.18;66.38;102951.69;8209118;28;20042;-83
2022/01/13 14:24:37;;;;;;;9.65;5.57;;;8.70;61.50;;;7.13;66.93;102948.22;8201998;28;20533;-83
2022/01/13 14:28:59;;;;;;;8.75;5.60;;;8.90;61.50;;;6.98;66.45;102929.25;8187502;28;20035;-83
2022/01/13 14:33:36;;;;;;;9.25;5.50;;;8.90;61.50;;;7.16;66.76;102949.09;8205221;28;20031;-83
2022/01/13 14:37:58;;;;;;;8.38;4.88;;;8.80;61.30;;;7.18;66.80;102960.31;8176247;28;20499;-82
2022/01/13 14:42:30;;;;;;;9.77;5.32;;;8.70;61.20;;;7.17;66.88;102979.41;8202869;28;20039;-84
2022/01/13 14:47:04;;;;;;;11.75;6.53;;;8.90;61.20;;;7.18;66.33;102983.72;8189987;28;20444;-84
2022/01/13 14:51:26;;;;;;;9.55;5.18;;;8.90;61.20;;;7.17;66.38;102974.19;8180325;28;20046;-84
2022/01/13 14:55:49;;;;;;;10.82;5.85;;;8.90;61.20;;;7.09;66.70;102957.78;8175651;28;20060;-84
2022/01/13 15:00:12;;;;;;;9.13;5.47;;;8.90;61.20;;;7.16;66.70;102979.44;8186307;28;20051;-84
2022/01/13 15:04:34;;;;;;;8.68;5.15;;;8.90;61.10;;;7.14;66.65;102971.63;8188373;28;20045;-86
2022/01/13 15:08:57;;;;;;;10.73;5.55;;;8.90;61.10;;;7.13;66.45;102961.22;8181157;28;20166;-85
2022/01/13 15:13:19;;;;;;;9.50;5.53;;;8.90;61.10;;;7.02;66.18;102949.16;8179267;28;20613;-81
2022/01/13 15:17:41;;;;;;;12.18;5.00;;;8.70;60.90;;;7.23;66.53;102978.50;8188803;28;20049;-85
2022/01/13 15:22:05;;;;;;;10.85;5.55;;;8.90;61.00;;;7.24;66.44;102985.44;8195430;28;20039;-84
2022/01/13 15:26:27;;;;;;;9.75;5.43;;;8.90;61.00;;;7.06;66.23;102950.00;8162969;28;20031;-85
2022/01/13 15:30:51;;;;;;;9.77;5.35;;;8.90;61.00;;;7.06;66.44;102953.47;8176185;28;20793;-84
2022/01/13 15:35:13;;;;;;;9.45;5.75;;;8.70;60.80;;;7.19;66.25;102969.88;8199229;28;20043;-83
2022/01/13 15:39:35;;;;;;;9.25;5.43;;;8.90;60.90;;;7.19;66.24;102972.47;8179294;28;20042;-84
2022/01/13 15:43:56;;;;;;;10.30;5.47;;;8.90;60.80;;;7.22;66.17;102982.84;8169279;28;20047;-84
2022/01/13 15:48:18;;;;;;;9.88;5.72;;;8.90;60.80;;;7.24;66.12;102975.91;8182708;28;20045;-86
2022/01/13 15:52:40;;;;;;;10.07;5.18;;;8.90;60.80;;;7.26;66.05;102981.97;8195329;28;20041;-84
2022/01/13 15:57:02;;;;;;;8.52;5.45;;;8.90;60.80;;;7.23;66.18;102976.75;8196691;28;20496;-84
2022/01/13 16:01:23;;;;;;;10.70;6.13;;;8.90;60.80;;;7.26;66.40;102989.78;8172498;28;20572;-85
2022/01/13 16:05:45;;;;;;;8.15;5.18;;;8.90;60.80;;;7.19;66.58;102979.41;8171282;28;20039;-84
2022/01/13 16:10:09;;;;;;;11.82;6.43;;;8.90;60.80;;;7.14;66.26;102975.97;8158333;28;20043;-83
2022/01/13 16:14:33;;;;;;;8.85;5.47;;;8.90;60.80;;;7.26;66.43;102988.88;8150635;28;20065;-84
2022/01/13 16:18:55;;;;;;;11.25;6.13;;;8.80;60.70;;;7.25;66.25;102988.03;8184321;28;20039;-85
2022/01/13 16:23:16;;;;;;;12.50;7.00;;;8.90;60.90;;;7.20;66.51;102988.91;8168517;28;20501;-85
2022/01/13 16:27:41;;;;;;;9.43;5.55;;;8.90;60.80;;;7.24;66.23;102990.66;8167572;28;20079;-85
2022/01/13 16:32:04;;;;;;;10.13;5.45;;;8.90;60.90;;;7.26;66.45;102991.47;8174713;28;20046;-86
2022/01/13 16:36:35;;;;;;;9.88;5.50;;;8.90;60.90;;;7.13;66.20;102953.44;8166992;28;20053;-85
2022/01/13 16:40:56;;;;;;;8.40;5.25;;;8.90;60.80;;;7.20;66.46;102965.53;8163680;28;20047;-84
2022/01/13 16:45:24;;;;;;;9.90;5.70;;;8.90;60.80;;;7.15;66.26;102962.09;8160005;28;20039;-85
2022/01/13 16:49:47;;;;;;;11.30;5.90;;;8.90;60.70;;;7.16;66.24;102964.69;8192825;28;20528;-84
2022/01/13 16:54:09;;;;;;;9.30;5.35;;;8.90;60.70;;;7.29;66.45;102974.16;8181324;28;20394;-85
2022/01/13 16:58:30;;;;;;;9.13;5.85;;;8.90;60.70;;;7.20;66.07;102955.13;8168692;28;20049;-85
2022/01/13 17:02:52;;;;;;;10.60;5.57;;;8.90;60.70;;;7.29;66.29;102970.66;8168833;28;20622;-84
2022/01/13 17:07:15;;;;;;;8.10;5.15;;;8.90;60.60;;;7.22;66.58;102950.81;8195425;28;20037;-84
2022/01/13 17:11:37;;;;;;;9.45;5.25;;;9.00;60.80;;;7.20;66.27;102947.34;8182516;28;20035;-85
2022/01/13 17:15:59;;;;;;;8.65;5.55;;;8.90;60.60;;;7.29;66.45;102963.75;8159585;28;20069;-85
2022/01/13 17:20:21;;;;;;;11.55;5.95;;;9.00;60.60;;;7.25;65.89;102948.19;8166926;29;20042;-84
2022/01/13 17:24:43;;;;;;;10.38;5.60;;;9.00;60.60;;;7.26;66.29;102958.59;8188613;28;20045;-84
2022/01/13 17:29:05;;;;;;;9.55;4.88;;;8.80;60.40;;;7.32;66.29;102962.88;8155355;28;20049;-84
2022/01/13 17:33:27;;;;;;;8.07;5.28;;;8.80;60.40;;;7.29;66.45;102952.47;8183951;28;20047;-84
2022/01/13 17:37:52;;;;;;;10.32;5.40;;;8.90;60.50;;;7.35;66.03;102952.47;8169509;29;20049;-84
2022/01/13 17:42:14;;;;;;;9.10;5.38;;;9.00;60.50;;;7.21;66.44;102913.56;8172286;28;20043;-84
2022/01/13 17:46:38;;;;;;;8.88;5.97;;;9.00;60.40;;;7.21;65.81;102923.06;8176008;28;20039;-84
2022/01/13 17:51:00;;;;;;;9.50;5.93;;;8.90;60.20;;;7.32;66.29;102942.94;8164767;28;20128;-85
2022/01/13 17:55:22;;;;;;;10.02;6.05;;;9.00;60.30;;;7.35;66.37;102944.66;8172612;28;20519;-86
2022/01/13 17:59:45;;;;;;;9.82;5.22;;;8.90;60.20;;;7.28;66.17;102927.38;8161305;28;20630;-86
2022/01/13 18:04:06;;;;;;;12.27;5.90;;;9.00;60.20;;;7.27;66.27;102923.06;8169416;28;20047;-85
2022/01/13 18:08:28;;;;;;;9.43;5.50;;;9.00;60.20;;;7.41;65.92;102955.03;8179383;28;20041;-86
2022/01/13 18:12:55;;;;;;;11.45;6.50;;;9.00;60.20;;;7.19;66.27;102917.91;8182195;28;20053;-85
2022/01/13 18:17:19;;;;;;;11.73;6.43;;;9.00;60.10;;;7.24;65.88;102915.28;8177295;28;20043;-85
2022/01/13 18:21:41;;;;;;;9.30;6.10;;;9.00;60.10;;;7.32;66.02;102929.94;8182251;28;20373;-83
2022/01/13 18:26:03;;;;;;;11.50;6.22;;;9.00;60.20;;;7.30;66.03;102918.69;8187824;28;20045;-84
2022/01/13 18:30:24;;;;;;;9.90;6.15;;;9.00;60.10;;;7.40;66.25;102935.09;8180237;28;20061;-83
2022/01/13 18:34:46;;;;;;;7.55;5.85;;;9.00;60.10;;;7.22;66.13;102899.69;8184518;28;20043;-83
2022/01/13 18:39:08;;;;;;;11.50;6.22;;;8.90;60.80;;;7.34;65.74;102914.34;8198441;28;20039;-83
2022/01/13 18:43:30;;;;;;;7.88;5.65;;;9.00;60.10;;;7.23;65.90;102895.34;8182183;28;20043;-84
2022/01/13 18:48:09;;;;;;;9.57;6.53;;;9.10;60.40;;;7.47;65.79;102936.78;8159854;28;20515;-82
2022/01/13 18:52:34;;;;;;;10.20;6.18;;;9.10;60.10;;;7.24;65.92;102897.94;8174631;28;20162;-84
2022/01/13 18:56:59;;;;;;;10.88;5.90;;;9.10;60.20;;;7.44;66.25;102926.41;8179722;28;20461;-83